sensor_id;sensor_type;location;lat;lon;timestamp;P1;durP1;ratioP1;P2;durP2;ratioP2
3647;SDS011;1840;48.892;15.312;2023-05-08T00:00:55;12.27;;;8.10;;
3647;SDS011;1840;48.892;15.312;2023-05-08T00:03:24;11.80;;;7.60;;
3647;SDS011;1840;48.892;15.312;2023-05-08T00:05:52;11.07;;;7.93;;
3647;SDS011;1840;48.892;15.312;2023-05-08T00:08:22;10.90;;;7.90;;
3647;SDS011;1840;48.892;15.312;2023-05-08T00:10:50;12.67;;;8.30;;
3647;SDS011;1840;48.892;15.312;2023-05-08T00:13:20;10.97;;;7.60;;
3647;SDS011;1840;48.892;15.312;2023-05-08T00:15:48;11.90;;;8.47;;
3647;SDS011;1840;48.892;15.312;2023-05-08T00:18:16;12.20;;;8.77;;
3647;SDS011;1840;48.892;15.312;2023-05-08T00:20:44;11.60;;;8.13;;
3647;SDS011;1840;48.892;15.312;2023-05-08T00:23:12;11.50;;;8.00;;
3647;SDS011;1840;48.892;15.312;2023-05-08T00:25:40;12.10;;;8.03;;
3647;SDS011;1840;48.892;15.312;2023-05-08T00:28:08;12.17;;;7.70;;
3647;SDS011;1840;48.892;15.312;2023-05-08T00:30:38;11.27;;;7.97;;
3647;SDS011;1840;48.892;15.312;2023-05-08T00:33:06;11.00;;;8.47;;
3647;SDS011;1840;48.892;15.312;2023-05-08T00:35:34;13.73;;;7.33;;
3647;SDS011;1840;48.892;15.312;2023-05-08T00:38:02;13.90;;;7.53;;
3647;SDS011;1840;48.892;15.312;2023-05-08T00:40:30;13.87;;;7.83;;
3647;SDS011;1840;48.892;15.312;2023-05-08T00:42:58;9.37;;;7.30;;
3647;SDS011;1840;48.892;15.312;2023-05-08T00:45:27;10.67;;;8.13;;
3647;SDS011;1840;48.892;15.312;2023-05-08T00:48:02;10.80;;;7.27;;
3647;SDS011;1840;48.892;15.312;2023-05-08T00:50:31;10.63;;;7.53;;
3647;SDS011;1840;48.892;15.312;2023-05-08T00:52:59;9.77;;;7.03;;
3647;SDS011;1840;48.892;15.312;2023-05-08T00:55:28;10.60;;;7.53;;
3647;SDS011;1840;48.892;15.312;2023-05-08T00:57:56;10.80;;;7.30;;
3647;SDS011;1840;48.892;15.312;2023-05-08T01:00:25;13.07;;;8.20;;
3647;SDS011;1840;48.892;15.312;2023-05-08T01:02:53;11.30;;;7.37;;
3647;SDS011;1840;48.892;15.312;2023-05-08T01:05:22;10.33;;;7.23;;
3647;SDS011;1840;48.892;15.312;2023-05-08T01:07:50;17.17;;;7.03;;
3647;SDS011;1840;48.892;15.312;2023-05-08T01:10:18;10.20;;;7.30;;
3647;SDS011;1840;48.892;15.312;2023-05-08T01:12:49;12.27;;;7.87;;
3647;SDS011;1840;48.892;15.312;2023-05-08T01:15:28;10.50;;;7.80;;
3647;SDS011;1840;48.892;15.312;2023-05-08T01:18:14;14.20;;;8.30;;
3647;SDS011;1840;48.892;15.312;2023-05-08T01:20:50;13.50;;;8.00;;
3647;SDS011;1840;48.892;15.312;2023-05-08T01:32:52;10.50;;;7.97;;
3647;SDS011;1840;48.892;15.312;2023-05-08T01:35:26;10.27;;;7.57;;
3647;SDS011;1840;48.892;15.312;2023-05-08T01:37:59;11.40;;;7.63;;
3647;SDS011;1840;48.892;15.312;2023-05-08T01:40:36;10.20;;;7.07;;
3647;SDS011;1840;48.892;15.312;2023-05-08T01:43:12;12.90;;;8.60;;
3647;SDS011;1840;48.892;15.312;2023-05-08T01:45:47;12.60;;;9.17;;
3647;SDS011;1840;48.892;15.312;2023-05-08T01:48:18;13.23;;;8.47;;
3647;SDS011;1840;48.892;15.312;2023-05-08T01:50:53;12.13;;;8.00;;
3647;SDS011;1840;48.892;15.312;2023-05-08T01:53:25;11.55;;;8.07;;
3647;SDS011;1840;48.892;15.312;2023-05-08T01:55:57;11.33;;;8.30;;
3647;SDS011;1840;48.892;15.312;2023-05-08T01:58:29;12.07;;;8.97;;
3647;SDS011;1840;48.892;15.312;2023-05-08T02:01:01;10.67;;;8.53;;
3647;SDS011;1840;48.892;15.312;2023-05-08T02:03:32;13.17;;;9.30;;
3647;SDS011;1840;48.892;15.312;2023-05-08T02:06:01;13.57;;;9.60;;
3647;SDS011;1840;48.892;15.312;2023-05-08T02:08:30;15.27;;;9.60;;
3647;SDS011;1840;48.892;15.312;2023-05-08T02:11:01;14.53;;;9.73;;
3647;SDS011;1840;48.892;15.312;2023-05-08T02:13:30;14.20;;;9.90;;
3647;SDS011;1840;48.892;15.312;2023-05-08T02:15:59;15.07;;;10.20;;
3647;SDS011;1840;48.892;15.312;2023-05-08T02:18:28;15.70;;;10.40;;
3647;SDS011;1840;48.892;15.312;2023-05-08T02:21:01;13.47;;;10.10;;
3647;SDS011;1840;48.892;15.312;2023-05-08T02:23:31;15.33;;;10.67;;
3647;SDS011;1840;48.892;15.312;2023-05-08T02:26:01;14.13;;;9.73;;
3647;SDS011;1840;48.892;15.312;2023-05-08T02:28:30;19.23;;;12.63;;
3647;SDS011;1840;48.892;15.312;2023-05-08T02:30:59;15.17;;;10.67;;
3647;SDS011;1840;48.892;15.312;2023-05-08T02:33:28;18.07;;;11.43;;
3647;SDS011;1840;48.892;15.312;2023-05-08T02:35:58;20.23;;;13.70;;
3647;SDS011;1840;48.892;15.312;2023-05-08T02:38:28;18.43;;;12.03;;
3647;SDS011;1840;48.892;15.312;2023-05-08T02:40:59;16.37;;;12.07;;
3647;SDS011;1840;48.892;15.312;2023-05-08T02:43:30;17.10;;;11.60;;
3647;SDS011;1840;48.892;15.312;2023-05-08T02:46:01;16.77;;;12.33;;
3647;SDS011;1840;48.892;15.312;2023-05-08T02:48:37;22.33;;;13.73;;
3647;SDS011;1840;48.892;15.312;2023-05-08T02:51:17;24.20;;;14.00;;
3647;SDS011;1840;48.892;15.312;2023-05-08T02:53:49;23.37;;;15.60;;
3647;SDS011;1840;48.892;15.312;2023-05-08T02:56:26;23.43;;;15.57;;
3647;SDS011;1840;48.892;15.312;2023-05-08T02:59:00;23.00;;;15.37;;
3647;SDS011;1840;48.892;15.312;2023-05-08T03:01:37;22.97;;;15.53;;
3647;SDS011;1840;48.892;15.312;2023-05-08T03:04:13;24.53;;;16.20;;
3647;SDS011;1840;48.892;15.312;2023-05-08T03:06:52;24.60;;;16.30;;
3647;SDS011;1840;48.892;15.312;2023-05-08T03:09:23;26.73;;;17.27;;
3647;SDS011;1840;48.892;15.312;2023-05-08T03:11:59;27.20;;;17.30;;
3647;SDS011;1840;48.892;15.312;2023-05-08T03:14:30;25.77;;;18.03;;
3647;SDS011;1840;48.892;15.312;2023-05-08T03:17:01;24.92;;;17.73;;
3647;SDS011;1840;48.892;15.312;2023-05-08T03:19:34;33.20;;;18.13;;
3647;SDS011;1840;48.892;15.312;2023-05-08T03:22:05;28.17;;;18.00;;
3647;SDS011;1840;48.892;15.312;2023-05-08T03:24:35;24.77;;;17.50;;
3647;SDS011;1840;48.892;15.312;2023-05-08T03:27:04;24.33;;;17.37;;
3647;SDS011;1840;48.892;15.312;2023-05-08T03:29:35;24.90;;;16.87;;
3647;SDS011;1840;48.892;15.312;2023-05-08T03:32:05;25.83;;;15.60;;
3647;SDS011;1840;48.892;15.312;2023-05-08T03:34:34;24.80;;;16.80;;
3647;SDS011;1840;48.892;15.312;2023-05-08T03:37:02;23.07;;;16.40;;
3647;SDS011;1840;48.892;15.312;2023-05-08T03:39:32;23.17;;;15.47;;
3647;SDS011;1840;48.892;15.312;2023-05-08T03:42:00;22.40;;;14.83;;
3647;SDS011;1840;48.892;15.312;2023-05-08T03:44:28;20.73;;;15.47;;
3647;SDS011;1840;48.892;15.312;2023-05-08T03:46:56;22.63;;;15.37;;
3647;SDS011;1840;48.892;15.312;2023-05-08T03:49:25;18.95;;;13.95;;
3647;SDS011;1840;48.892;15.312;2023-05-08T03:51:57;22.10;;;15.93;;
3647;SDS011;1840;48.892;15.312;2023-05-08T03:54:26;22.23;;;15.43;;
3647;SDS011;1840;48.892;15.312;2023-05-08T03:56:56;29.93;;;15.90;;
3647;SDS011;1840;48.892;15.312;2023-05-08T03:59:27;23.57;;;16.60;;
3647;SDS011;1840;48.892;15.312;2023-05-08T04:02:08;30.53;;;16.77;;
3647;SDS011;1840;48.892;15.312;2023-05-08T04:04:43;24.80;;;16.63;;
3647;SDS011;1840;48.892;15.312;2023-05-08T04:07:14;20.77;;;15.20;;
3647;SDS011;1840;48.892;15.312;2023-05-08T04:09:50;24.47;;;16.20;;
3647;SDS011;1840;48.892;15.312;2023-05-08T04:12:30;24.90;;;16.33;;
3647;SDS011;1840;48.892;15.312;2023-05-08T04:15:03;23.30;;;16.37;;
3647;SDS011;1840;48.892;15.312;2023-05-08T04:17:37;24.63;;;15.60;;
3647;SDS011;1840;48.892;15.312;2023-05-08T04:20:09;22.27;;;15.97;;
3647;SDS011;1840;48.892;15.312;2023-05-08T04:22:41;22.33;;;15.67;;
3647;SDS011;1840;48.892;15.312;2023-05-08T04:25:11;24.43;;;15.10;;
3647;SDS011;1840;48.892;15.312;2023-05-08T04:27:45;22.43;;;15.00;;
3647;SDS011;1840;48.892;15.312;2023-05-08T04:30:14;22.07;;;14.97;;
3647;SDS011;1840;48.892;15.312;2023-05-08T04:32:42;21.37;;;15.00;;
3647;SDS011;1840;48.892;15.312;2023-05-08T04:35:12;21.63;;;14.10;;
3647;SDS011;1840;48.892;15.312;2023-05-08T04:37:41;23.40;;;15.90;;
3647;SDS011;1840;48.892;15.312;2023-05-08T04:40:10;20.60;;;15.27;;
3647;SDS011;1840;48.892;15.312;2023-05-08T04:42:38;20.90;;;15.30;;
3647;SDS011;1840;48.892;15.312;2023-05-08T04:45:10;20.77;;;14.60;;
3647;SDS011;1840;48.892;15.312;2023-05-08T04:47:38;20.80;;;14.70;;
3647;SDS011;1840;48.892;15.312;2023-05-08T04:50:06;22.27;;;15.50;;
3647;SDS011;1840;48.892;15.312;2023-05-08T04:52:35;22.48;;;16.15;;
3647;SDS011;1840;48.892;15.312;2023-05-08T04:55:03;25.20;;;15.90;;
3647;SDS011;1840;48.892;15.312;2023-05-08T04:57:32;21.43;;;15.40;;
3647;SDS011;1840;48.892;15.312;2023-05-08T05:00:00;23.33;;;15.53;;
3647;SDS011;1840;48.892;15.312;2023-05-08T05:02:29;19.67;;;14.47;;
3647;SDS011;1840;48.892;15.312;2023-05-08T05:04:57;21.93;;;14.43;;
3647;SDS011;1840;48.892;15.312;2023-05-08T05:07:26;21.65;;;14.70;;
3647;SDS011;1840;48.892;15.312;2023-05-08T05:09:54;20.57;;;14.90;;
3647;SDS011;1840;48.892;15.312;2023-05-08T05:12:22;23.90;;;15.63;;
3647;SDS011;1840;48.892;15.312;2023-05-08T05:14:50;21.77;;;15.67;;
3647;SDS011;1840;48.892;15.312;2023-05-08T05:17:18;20.80;;;15.37;;
3647;SDS011;1840;48.892;15.312;2023-05-08T05:19:48;22.20;;;15.57;;
3647;SDS011;1840;48.892;15.312;2023-05-08T05:22:18;21.40;;;14.50;;
3647;SDS011;1840;48.892;15.312;2023-05-08T05:24:46;21.73;;;14.97;;
3647;SDS011;1840;48.892;15.312;2023-05-08T05:27:14;20.77;;;14.97;;
3647;SDS011;1840;48.892;15.312;2023-05-08T05:29:45;22.27;;;14.63;;
3647;SDS011;1840;48.892;15.312;2023-05-08T05:32:13;20.60;;;13.80;;
3647;SDS011;1840;48.892;15.312;2023-05-08T05:34:41;19.53;;;13.50;;
3647;SDS011;1840;48.892;15.312;2023-05-08T05:37:10;20.20;;;14.70;;
3647;SDS011;1840;48.892;15.312;2023-05-08T05:39:38;19.07;;;13.37;;
3647;SDS011;1840;48.892;15.312;2023-05-08T05:42:06;21.47;;;15.23;;
3647;SDS011;1840;48.892;15.312;2023-05-08T05:44:34;22.77;;;14.80;;
3647;SDS011;1840;48.892;15.312;2023-05-08T05:47:03;17.80;;;13.33;;
3647;SDS011;1840;48.892;15.312;2023-05-08T05:49:35;20.77;;;15.00;;
3647;SDS011;1840;48.892;15.312;2023-05-08T05:52:04;22.57;;;15.63;;
3647;SDS011;1840;48.892;15.312;2023-05-08T05:54:34;23.70;;;14.70;;
3647;SDS011;1840;48.892;15.312;2023-05-08T05:57:02;21.03;;;14.80;;
3647;SDS011;1840;48.892;15.312;2023-05-08T05:59:30;26.90;;;17.23;;
3647;SDS011;1840;48.892;15.312;2023-05-08T06:01:58;19.30;;;14.03;;
3647;SDS011;1840;48.892;15.312;2023-05-08T06:04:27;23.80;;;16.10;;
3647;SDS011;1840;48.892;15.312;2023-05-08T06:06:56;22.10;;;15.50;;
3647;SDS011;1840;48.892;15.312;2023-05-08T06:09:24;26.10;;;18.57;;
3647;SDS011;1840;48.892;15.312;2023-05-08T06:11:53;23.73;;;16.80;;
3647;SDS011;1840;48.892;15.312;2023-05-08T06:14:21;19.87;;;14.63;;
3647;SDS011;1840;48.892;15.312;2023-05-08T06:16:49;24.37;;;15.87;;
3647;SDS011;1840;48.892;15.312;2023-05-08T06:19:17;29.20;;;17.20;;
3647;SDS011;1840;48.892;15.312;2023-05-08T06:21:46;25.90;;;15.67;;
3647;SDS011;1840;48.892;15.312;2023-05-08T06:24:13;24.60;;;17.40;;
3647;SDS011;1840;48.892;15.312;2023-05-08T06:26:41;20.00;;;15.03;;
3647;SDS011;1840;48.892;15.312;2023-05-08T06:29:11;22.23;;;14.43;;
3647;SDS011;1840;48.892;15.312;2023-05-08T06:31:39;19.93;;;13.97;;
3647;SDS011;1840;48.892;15.312;2023-05-08T06:34:07;22.83;;;14.87;;
3647;SDS011;1840;48.892;15.312;2023-05-08T06:36:35;25.07;;;15.63;;
3647;SDS011;1840;48.892;15.312;2023-05-08T06:39:03;29.53;;;19.53;;
3647;SDS011;1840;48.892;15.312;2023-05-08T06:41:32;22.30;;;16.80;;
3647;SDS011;1840;48.892;15.312;2023-05-08T06:44:00;25.40;;;17.87;;
3647;SDS011;1840;48.892;15.312;2023-05-08T06:46:29;19.00;;;13.90;;
3647;SDS011;1840;48.892;15.312;2023-05-08T06:48:57;27.47;;;18.93;;
3647;SDS011;1840;48.892;15.312;2023-05-08T06:51:25;20.90;;;14.27;;
3647;SDS011;1840;48.892;15.312;2023-05-08T06:53:53;19.23;;;13.90;;
3647;SDS011;1840;48.892;15.312;2023-05-08T06:56:21;18.00;;;13.30;;
3647;SDS011;1840;48.892;15.312;2023-05-08T06:58:49;16.48;;;11.98;;
3647;SDS011;1840;48.892;15.312;2023-05-08T07:01:31;21.20;;;13.40;;
3647;SDS011;1840;48.892;15.312;2023-05-08T07:04:00;17.13;;;12.67;;
3647;SDS011;1840;48.892;15.312;2023-05-08T07:06:28;17.10;;;12.77;;
3647;SDS011;1840;48.892;15.312;2023-05-08T07:08:57;19.83;;;13.30;;
3647;SDS011;1840;48.892;15.312;2023-05-08T07:11:25;18.20;;;13.03;;
3647;SDS011;1840;48.892;15.312;2023-05-08T07:13:53;15.53;;;10.90;;
3647;SDS011;1840;48.892;15.312;2023-05-08T07:16:21;16.30;;;12.03;;
3647;SDS011;1840;48.892;15.312;2023-05-08T07:18:50;18.90;;;13.37;;
3647;SDS011;1840;48.892;15.312;2023-05-08T07:21:18;20.23;;;14.60;;
3647;SDS011;1840;48.892;15.312;2023-05-08T07:23:46;18.40;;;12.05;;
3647;SDS011;1840;48.892;15.312;2023-05-08T07:26:16;19.30;;;12.97;;
3647;SDS011;1840;48.892;15.312;2023-05-08T07:28:47;16.73;;;12.87;;
3647;SDS011;1840;48.892;15.312;2023-05-08T07:31:18;17.50;;;12.60;;
3647;SDS011;1840;48.892;15.312;2023-05-08T07:33:47;16.40;;;12.23;;
3647;SDS011;1840;48.892;15.312;2023-05-08T07:36:16;15.37;;;11.37;;
3647;SDS011;1840;48.892;15.312;2023-05-08T07:38:44;14.77;;;10.70;;
3647;SDS011;1840;48.892;15.312;2023-05-08T07:41:12;16.10;;;10.90;;
3647;SDS011;1840;48.892;15.312;2023-05-08T07:43:40;14.17;;;10.70;;
3647;SDS011;1840;48.892;15.312;2023-05-08T07:46:14;16.33;;;11.40;;
3647;SDS011;1840;48.892;15.312;2023-05-08T07:48:43;16.10;;;10.97;;
3647;SDS011;1840;48.892;15.312;2023-05-08T07:51:11;18.07;;;11.43;;
3647;SDS011;1840;48.892;15.312;2023-05-08T07:53:41;16.30;;;10.93;;
3647;SDS011;1840;48.892;15.312;2023-05-08T07:56:09;14.67;;;10.60;;
3647;SDS011;1840;48.892;15.312;2023-05-08T07:58:37;15.83;;;10.90;;
3647;SDS011;1840;48.892;15.312;2023-05-08T08:01:07;13.50;;;10.57;;
3647;SDS011;1840;48.892;15.312;2023-05-08T08:03:35;13.33;;;10.03;;
3647;SDS011;1840;48.892;15.312;2023-05-08T08:06:04;14.00;;;10.93;;
3647;SDS011;1840;48.892;15.312;2023-05-08T08:08:32;15.13;;;10.70;;
3647;SDS011;1840;48.892;15.312;2023-05-08T08:11:01;14.13;;;10.60;;
3647;SDS011;1840;48.892;15.312;2023-05-08T08:13:29;15.53;;;10.73;;
3647;SDS011;1840;48.892;15.312;2023-05-08T08:15:58;14.83;;;10.30;;
3647;SDS011;1840;48.892;15.312;2023-05-08T08:18:26;14.67;;;10.37;;
3647;SDS011;1840;48.892;15.312;2023-05-08T08:20:54;16.43;;;12.00;;
3647;SDS011;1840;48.892;15.312;2023-05-08T08:23:22;14.43;;;10.67;;
3647;SDS011;1840;48.892;15.312;2023-05-08T08:25:50;16.43;;;9.53;;
3647;SDS011;1840;48.892;15.312;2023-05-08T08:28:20;15.13;;;10.47;;
3647;SDS011;1840;48.892;15.312;2023-05-08T08:30:48;13.80;;;9.20;;
3647;SDS011;1840;48.892;15.312;2023-05-08T08:33:16;13.07;;;9.20;;
3647;SDS011;1840;48.892;15.312;2023-05-08T08:35:44;13.90;;;9.97;;
3647;SDS011;1840;48.892;15.312;2023-05-08T08:38:12;13.03;;;9.27;;
3647;SDS011;1840;48.892;15.312;2023-05-08T08:40:41;11.50;;;8.53;;
3647;SDS011;1840;48.892;15.312;2023-05-08T08:43:09;13.40;;;9.10;;
3647;SDS011;1840;48.892;15.312;2023-05-08T08:45:39;13.43;;;9.40;;
3647;SDS011;1840;48.892;15.312;2023-05-08T08:48:09;10.70;;;7.50;;
3647;SDS011;1840;48.892;15.312;2023-05-08T08:50:40;11.30;;;8.47;;
3647;SDS011;1840;48.892;15.312;2023-05-08T08:53:10;16.47;;;10.93;;
3647;SDS011;1840;48.892;15.312;2023-05-08T08:55:43;13.07;;;9.37;;
3647;SDS011;1840;48.892;15.312;2023-05-08T08:58:19;13.40;;;9.00;;
3647;SDS011;1840;48.892;15.312;2023-05-08T09:00:52;13.40;;;9.23;;
3647;SDS011;1840;48.892;15.312;2023-05-08T09:03:22;18.27;;;11.80;;
3647;SDS011;1840;48.892;15.312;2023-05-08T09:05:50;12.53;;;9.40;;
3647;SDS011;1840;48.892;15.312;2023-05-08T09:08:18;12.17;;;7.37;;
3647;SDS011;1840;48.892;15.312;2023-05-08T09:10:47;12.07;;;7.97;;
3647;SDS011;1840;48.892;15.312;2023-05-08T09:13:15;13.30;;;8.20;;
3647;SDS011;1840;48.892;15.312;2023-05-08T09:15:45;12.97;;;8.60;;
3647;SDS011;1840;48.892;15.312;2023-05-08T09:18:15;13.80;;;6.83;;
3647;SDS011;1840;48.892;15.312;2023-05-08T09:20:44;11.27;;;7.80;;
3647;SDS011;1840;48.892;15.312;2023-05-08T09:23:13;12.10;;;8.30;;
3647;SDS011;1840;48.892;15.312;2023-05-08T09:25:42;11.90;;;6.97;;
3647;SDS011;1840;48.892;15.312;2023-05-08T09:28:15;11.50;;;8.17;;
3647;SDS011;1840;48.892;15.312;2023-05-08T09:30:47;9.97;;;7.57;;
3647;SDS011;1840;48.892;15.312;2023-05-08T09:33:18;10.10;;;7.20;;
3647;SDS011;1840;48.892;15.312;2023-05-08T09:35:47;11.40;;;7.27;;
3647;SDS011;1840;48.892;15.312;2023-05-08T09:41:09;13.23;;;9.10;;
3647;SDS011;1840;48.892;15.312;2023-05-08T09:43:40;13.20;;;9.37;;
3647;SDS011;1840;48.892;15.312;2023-05-08T09:46:18;12.80;;;7.83;;
3647;SDS011;1840;48.892;15.312;2023-05-08T09:48:52;14.23;;;8.77;;
3647;SDS011;1840;48.892;15.312;2023-05-08T09:51:21;11.03;;;7.93;;
3647;SDS011;1840;48.892;15.312;2023-05-08T09:53:50;11.07;;;8.07;;
3647;SDS011;1840;48.892;15.312;2023-05-08T09:56:32;10.90;;;8.07;;
3647;SDS011;1840;48.892;15.312;2023-05-08T09:59:02;12.37;;;9.07;;
3647;SDS011;1840;48.892;15.312;2023-05-08T10:01:32;10.63;;;7.70;;
3647;SDS011;1840;48.892;15.312;2023-05-08T10:04:03;11.20;;;7.80;;
3647;SDS011;1840;48.892;15.312;2023-05-08T10:06:31;10.80;;;7.73;;
3647;SDS011;1840;48.892;15.312;2023-05-08T10:09:11;10.20;;;7.20;;
3647;SDS011;1840;48.892;15.312;2023-05-08T10:11:40;12.20;;;7.37;;
3647;SDS011;1840;48.892;15.312;2023-05-08T10:14:17;13.43;;;7.77;;
3647;SDS011;1840;48.892;15.312;2023-05-08T10:16:46;11.57;;;8.70;;
3647;SDS011;1840;48.892;15.312;2023-05-08T10:19:18;9.87;;;6.87;;
3647;SDS011;1840;48.892;15.312;2023-05-08T10:21:50;9.77;;;7.13;;
3647;SDS011;1840;48.892;15.312;2023-05-08T10:24:20;9.13;;;6.40;;
3647;SDS011;1840;48.892;15.312;2023-05-08T10:26:55;10.05;;;7.25;;
3647;SDS011;1840;48.892;15.312;2023-05-08T10:29:32;9.67;;;6.90;;
3647;SDS011;1840;48.892;15.312;2023-05-08T10:32:08;9.40;;;6.17;;
3647;SDS011;1840;48.892;15.312;2023-05-08T10:34:39;8.40;;;5.77;;
3647;SDS011;1840;48.892;15.312;2023-05-08T10:37:08;7.03;;;5.20;;
3647;SDS011;1840;48.892;15.312;2023-05-08T10:39:37;7.43;;;5.27;;
3647;SDS011;1840;48.892;15.312;2023-05-08T10:42:06;10.03;;;7.10;;
3647;SDS011;1840;48.892;15.312;2023-05-08T10:44:34;7.60;;;5.20;;
3647;SDS011;1840;48.892;15.312;2023-05-08T10:47:07;10.20;;;6.03;;
3647;SDS011;1840;48.892;15.312;2023-05-08T10:49:42;9.40;;;6.33;;
3647;SDS011;1840;48.892;15.312;2023-05-08T10:52:20;8.93;;;5.47;;
3647;SDS011;1840;48.892;15.312;2023-05-08T10:55:08;7.40;;;5.63;;
3647;SDS011;1840;48.892;15.312;2023-05-08T10:58:00;9.17;;;6.63;;
3647;SDS011;1840;48.892;15.312;2023-05-08T11:00:30;7.97;;;5.50;;
3647;SDS011;1840;48.892;15.312;2023-05-08T11:03:06;9.90;;;6.60;;
3647;SDS011;1840;48.892;15.312;2023-05-08T11:05:47;8.60;;;6.40;;
3647;SDS011;1840;48.892;15.312;2023-05-08T11:08:17;7.93;;;5.53;;
3647;SDS011;1840;48.892;15.312;2023-05-08T11:10:51;8.03;;;5.47;;
3647;SDS011;1840;48.892;15.312;2023-05-08T11:13:27;8.87;;;5.43;;
3647;SDS011;1840;48.892;15.312;2023-05-08T11:15:58;7.40;;;5.27;;
3647;SDS011;1840;48.892;15.312;2023-05-08T11:18:27;10.00;;;5.87;;
3647;SDS011;1840;48.892;15.312;2023-05-08T11:21:19;9.37;;;5.37;;
3647;SDS011;1840;48.892;15.312;2023-05-08T11:23:52;7.43;;;5.40;;
3647;SDS011;1840;48.892;15.312;2023-05-08T11:26:36;8.50;;;5.50;;
3647;SDS011;1840;48.892;15.312;2023-05-08T11:29:14;10.70;;;5.27;;
3647;SDS011;1840;48.892;15.312;2023-05-08T11:31:50;9.67;;;5.57;;
3647;SDS011;1840;48.892;15.312;2023-05-08T11:37:22;7.77;;;5.03;;
3647;SDS011;1840;48.892;15.312;2023-05-08T11:39:50;7.37;;;4.70;;
3647;SDS011;1840;48.892;15.312;2023-05-08T11:42:34;7.90;;;5.00;;
3647;SDS011;1840;48.892;15.312;2023-05-08T11:45:03;7.50;;;4.80;;
3647;SDS011;1840;48.892;15.312;2023-05-08T11:47:36;6.60;;;4.80;;
3647;SDS011;1840;48.892;15.312;2023-05-08T11:50:05;9.00;;;4.80;;
3647;SDS011;1840;48.892;15.312;2023-05-08T11:52:38;8.83;;;5.00;;
3647;SDS011;1840;48.892;15.312;2023-05-08T11:55:07;7.10;;;4.20;;
3647;SDS011;1840;48.892;15.312;2023-05-08T11:57:38;6.50;;;4.20;;
3647;SDS011;1840;48.892;15.312;2023-05-08T12:00:06;9.60;;;4.60;;
3647;SDS011;1840;48.892;15.312;2023-05-08T12:02:36;5.90;;;3.80;;
3647;SDS011;1840;48.892;15.312;2023-05-08T12:05:06;7.17;;;4.60;;
3647;SDS011;1840;48.892;15.312;2023-05-08T12:07:42;10.77;;;5.20;;
3647;SDS011;1840;48.892;15.312;2023-05-08T12:10:12;6.90;;;4.60;;
3647;SDS011;1840;48.892;15.312;2023-05-08T12:12:42;7.60;;;5.43;;
3647;SDS011;1840;48.892;15.312;2023-05-08T12:15:12;5.77;;;3.73;;
3647;SDS011;1840;48.892;15.312;2023-05-08T12:17:41;7.93;;;4.60;;
3647;SDS011;1840;48.892;15.312;2023-05-08T12:20:10;6.80;;;4.50;;
3647;SDS011;1840;48.892;15.312;2023-05-08T12:22:40;7.57;;;4.13;;
3647;SDS011;1840;48.892;15.312;2023-05-08T12:25:19;7.80;;;4.47;;
3647;SDS011;1840;48.892;15.312;2023-05-08T12:27:47;6.77;;;4.00;;
3647;SDS011;1840;48.892;15.312;2023-05-08T12:30:15;7.90;;;4.27;;
3647;SDS011;1840;48.892;15.312;2023-05-08T12:32:44;4.77;;;3.40;;
3647;SDS011;1840;48.892;15.312;2023-05-08T12:35:13;6.70;;;3.70;;
3647;SDS011;1840;48.892;15.312;2023-05-08T12:37:43;6.63;;;3.93;;
3647;SDS011;1840;48.892;15.312;2023-05-08T12:40:22;10.40;;;4.10;;
3647;SDS011;1840;48.892;15.312;2023-05-08T12:42:52;5.20;;;3.37;;
3647;SDS011;1840;48.892;15.312;2023-05-08T12:45:24;11.37;;;4.70;;
3647;SDS011;1840;48.892;15.312;2023-05-08T12:47:56;16.83;;;4.23;;
3647;SDS011;1840;48.892;15.312;2023-05-08T12:50:26;6.63;;;3.63;;
3647;SDS011;1840;48.892;15.312;2023-05-08T12:53:01;5.87;;;3.40;;
3647;SDS011;1840;48.892;15.312;2023-05-08T12:55:31;7.97;;;4.10;;
3647;SDS011;1840;48.892;15.312;2023-05-08T12:58:01;6.20;;;3.33;;
3647;SDS011;1840;48.892;15.312;2023-05-08T13:00:34;7.78;;;3.33;;
3647;SDS011;1840;48.892;15.312;2023-05-08T13:03:04;4.77;;;3.10;;
3647;SDS011;1840;48.892;15.312;2023-05-08T13:05:34;5.80;;;3.23;;
3647;SDS011;1840;48.892;15.312;2023-05-08T13:08:04;8.83;;;3.33;;
3647;SDS011;1840;48.892;15.312;2023-05-08T13:10:47;5.70;;;3.50;;
3647;SDS011;1840;48.892;15.312;2023-05-08T13:13:17;4.93;;;2.67;;
3647;SDS011;1840;48.892;15.312;2023-05-08T13:15:46;12.30;;;2.90;;
3647;SDS011;1840;48.892;15.312;2023-05-08T13:18:15;4.77;;;3.17;;
3647;SDS011;1840;48.892;15.312;2023-05-08T13:20:45;4.87;;;2.73;;
3647;SDS011;1840;48.892;15.312;2023-05-08T13:23:14;6.20;;;3.13;;
3647;SDS011;1840;48.892;15.312;2023-05-08T13:25:42;5.87;;;3.27;;
3647;SDS011;1840;48.892;15.312;2023-05-08T13:28:10;4.77;;;2.70;;
3647;SDS011;1840;48.892;15.312;2023-05-08T13:30:38;9.20;;;3.03;;
3647;SDS011;1840;48.892;15.312;2023-05-08T13:33:06;5.67;;;3.20;;
3647;SDS011;1840;48.892;15.312;2023-05-08T13:35:35;5.43;;;2.53;;
3647;SDS011;1840;48.892;15.312;2023-05-08T13:38:03;11.60;;;2.93;;
3647;SDS011;1840;48.892;15.312;2023-05-08T13:40:32;8.00;;;2.67;;
3647;SDS011;1840;48.892;15.312;2023-05-08T13:43:00;4.70;;;2.67;;
3647;SDS011;1840;48.892;15.312;2023-05-08T13:45:28;16.67;;;4.33;;
3647;SDS011;1840;48.892;15.312;2023-05-08T13:47:58;5.00;;;2.60;;
3647;SDS011;1840;48.892;15.312;2023-05-08T13:50:27;4.87;;;2.83;;
3647;SDS011;1840;48.892;15.312;2023-05-08T13:52:55;4.90;;;2.43;;
3647;SDS011;1840;48.892;15.312;2023-05-08T13:55:24;4.63;;;2.53;;
3647;SDS011;1840;48.892;15.312;2023-05-08T13:57:53;6.97;;;2.78;;
3647;SDS011;1840;48.892;15.312;2023-05-08T14:00:21;4.90;;;2.20;;
3647;SDS011;1840;48.892;15.312;2023-05-08T14:02:53;6.50;;;2.50;;
3647;SDS011;1840;48.892;15.312;2023-05-08T14:05:21;6.70;;;2.57;;
3647;SDS011;1840;48.892;15.312;2023-05-08T14:07:49;6.47;;;2.47;;
3647;SDS011;1840;48.892;15.312;2023-05-08T14:10:17;6.07;;;2.60;;
3647;SDS011;1840;48.892;15.312;2023-05-08T14:12:45;5.00;;;2.80;;
3647;SDS011;1840;48.892;15.312;2023-05-08T14:15:15;4.50;;;2.20;;
3647;SDS011;1840;48.892;15.312;2023-05-08T14:17:42;3.77;;;2.30;;
3647;SDS011;1840;48.892;15.312;2023-05-08T14:20:11;4.93;;;2.60;;
3647;SDS011;1840;48.892;15.312;2023-05-08T14:22:39;6.70;;;2.90;;
3647;SDS011;1840;48.892;15.312;2023-05-08T14:25:07;4.80;;;2.57;;
3647;SDS011;1840;48.892;15.312;2023-05-08T14:27:36;5.43;;;2.63;;
3647;SDS011;1840;48.892;15.312;2023-05-08T14:30:05;5.20;;;2.43;;
3647;SDS011;1840;48.892;15.312;2023-05-08T14:32:35;9.33;;;2.60;;
3647;SDS011;1840;48.892;15.312;2023-05-08T14:35:03;6.30;;;2.70;;
3647;SDS011;1840;48.892;15.312;2023-05-08T14:37:32;5.70;;;2.40;;
3647;SDS011;1840;48.892;15.312;2023-05-08T14:40:00;4.63;;;2.53;;
3647;SDS011;1840;48.892;15.312;2023-05-08T14:42:29;7.90;;;2.60;;
3647;SDS011;1840;48.892;15.312;2023-05-08T14:44:58;8.33;;;2.70;;
3647;SDS011;1840;48.892;15.312;2023-05-08T14:47:26;4.80;;;2.53;;
3647;SDS011;1840;48.892;15.312;2023-05-08T14:49:57;13.70;;;3.10;;
3647;SDS011;1840;48.892;15.312;2023-05-08T14:52:25;5.77;;;3.33;;
3647;SDS011;1840;48.892;15.312;2023-05-08T14:54:54;4.17;;;2.33;;
3647;SDS011;1840;48.892;15.312;2023-05-08T14:57:24;4.63;;;2.37;;
3647;SDS011;1840;48.892;15.312;2023-05-08T14:59:52;5.73;;;3.00;;
3647;SDS011;1840;48.892;15.312;2023-05-08T15:02:24;17.63;;;3.50;;
3647;SDS011;1840;48.892;15.312;2023-05-08T15:04:52;4.47;;;2.50;;
3647;SDS011;1840;48.892;15.312;2023-05-08T15:07:21;7.03;;;2.30;;
3647;SDS011;1840;48.892;15.312;2023-05-08T15:09:49;5.37;;;2.53;;
3647;SDS011;1840;48.892;15.312;2023-05-08T15:12:18;7.40;;;2.70;;
3647;SDS011;1840;48.892;15.312;2023-05-08T15:14:46;5.20;;;2.80;;
3647;SDS011;1840;48.892;15.312;2023-05-08T15:17:14;5.97;;;2.70;;
3647;SDS011;1840;48.892;15.312;2023-05-08T15:19:42;6.30;;;2.60;;